Time;durP1;ratioP1;P1;durP2;ratioP2;P2;SDS_P1;SDS_P2;PMS_P1;PMS_P2;Temp;Humidity;BMP_temperature;BMP_pressure;BME280_temperature;BME280_humidity;BME280_pressure;Samples;Min_cycle;Max_cycle;Signal;HPM_P1;HPM_P2
2021/01/25 00:00:22;;;;;;;2.07;1.50;;;20.00;21.50;;;;;;5055347;28;20187;-51
2021/01/25 00:02:48;;;;;;;1.73;1.30;;;20.00;21.60;;;;;;5055422;28;20606;-51
2021/01/25 00:05:14;;;;;;;1.53;1.23;;;20.00;21.50;;;;;;5055231;28;20187;-51
2021/01/25 00:07:40;;;;;;;1.60;1.43;;;20.00;21.60;;;;;;5054872;28;20179;-51
2021/01/25 00:10:06;;;;;;;1.48;1.02;;;20.00;21.60;;;;;;5055163;28;20190;-51
2021/01/25 00:12:35;;;;;;;1.45;1.00;;;20.00;21.50;;;;;;5055146;28;20164;-51
2021/01/25 00:15:01;;;;;;;1.20;1.10;;;20.00;21.60;;;;;;5055267;28;20168;-51
2021/01/25 00:17:27;;;;;;;3.88;1.25;;;20.00;21.60;;;;;;5055252;28;20539;-50
2021/01/25 00:19:52;;;;;;;1.30;1.20;;;20.00;21.60;;;;;;5055214;28;20178;-51
2021/01/25 00:22:18;;;;;;;3.57;1.20;;;20.00;21.60;;;;;;5054480;28;20194;-50
2021/01/25 00:24:44;;;;;;;1.20;1.00;;;20.00;21.60;;;;;;5054942;28;20233;-51
2021/01/25 00:27:09;;;;;;;1.90;1.50;;;20.00;21.60;;;;;;5055045;28;20205;-50
2021/01/25 00:29:35;;;;;;;1.63;1.20;;;20.00;21.60;;;;;;5055084;28;20163;-50
2021/01/25 00:32:01;;;;;;;1.13;1.00;;;20.00;21.60;;;;;;5054203;28;20169;-50
2021/01/25 00:34:27;;;;;;;2.03;1.47;;;20.00;21.60;;;;;;5054778;28;20388;-50
2021/01/25 00:36:53;;;;;;;1.88;1.52;;;20.00;21.60;;;;;;5054823;28;20170;-51
2021/01/25 00:39:19;;;;;;;1.30;1.17;;;20.00;21.60;;;;;;5054416;28;20163;-50
2021/01/25 00:41:45;;;;;;;1.00;0.90;;;20.00;21.60;;;;;;5054760;28;20449;-51
2021/01/25 00:44:11;;;;;;;1.20;1.00;;;20.00;21.50;;;;;;5054880;28;20397;-50
2021/01/25 00:46:37;;;;;;;1.30;0.97;;;20.00;21.60;;;;;;5054649;28;20384;-51
2021/01/25 00:49:03;;;;;;;1.67;1.30;;;20.00;21.50;;;;;;5054629;28;20511;-51
2021/01/25 00:51:28;;;;;;;2.20;1.00;;;20.00;21.60;;;;;;5054546;28;20186;-51
2021/01/25 00:53:54;;;;;;;2.10;1.40;;;20.00;21.60;;;;;;5054039;28;20511;-51
2021/01/25 00:56:20;;;;;;;2.63;1.10;;;20.00;21.60;;;;;;5054560;28;20637;-50
2021/01/25 00:58:45;;;;;;;1.00;0.90;;;20.00;21.60;;;;;;5054266;28;20154;-50
2021/01/25 01:01:11;;;;;;;1.53;1.43;;;19.90;21.50;;;;;;5065982;28;20189;-51
2021/01/25 01:03:37;;;;;;;1.30;1.10;;;20.00;21.60;;;;;;5074333;28;20239;-51
2021/01/25 01:06:03;;;;;;;1.23;1.13;;;19.90;22.00;;;;;;5056414;28;20216;-50
2021/01/25 01:08:29;;;;;;;1.65;1.48;;;20.00;21.60;;;;;;5073810;28;20165;-50
2021/01/25 01:10:54;;;;;;;1.30;1.20;;;19.90;21.50;;;;;;5074117;28;20210;-51
2021/01/25 01:13:20;;;;;;;1.20;0.90;;;20.00;21.60;;;;;;5074027;28;20517;-51
2021/01/25 01:15:45;;;;;;;1.07;0.93;;;20.00;21.60;;;;;;5074018;28;20158;-51
2021/01/25 01:18:12;;;;;;;1.37;1.27;;;20.00;21.60;;;;;;5074097;28;20241;-51
2021/01/25 01:20:38;;;;;;;4.30;1.35;;;20.00;21.50;;;;;;5073899;28;20160;-52
2021/01/25 01:23:04;;;;;;;1.10;1.00;;;20.00;22.10;;;;;;5073508;28;20165;-49
2021/01/25 01:25:32;;;;;;;1.00;0.90;;;20.00;21.50;;;;;;5073917;28;20415;-51
2021/01/25 01:27:58;;;;;;;1.40;1.17;;;20.00;21.50;;;;;;5073948;28;20378;-51
2021/01/25 01:30:23;;;;;;;1.63;1.43;;;20.00;21.50;;;;;;5073946;28;20246;-51
2021/01/25 01:32:49;;;;;;;1.20;1.10;;;20.00;21.50;;;;;;5073880;28;20200;-53
2021/01/25 01:35:15;;;;;;;1.40;1.00;;;20.00;21.50;;;;;;5073654;28;20166;-51
2021/01/25 01:37:41;;;;;;;1.90;1.13;;;20.00;21.50;;;;;;5073229;28;20154;-51
2021/01/25 01:40:12;;;;;;;1.40;1.30;;;20.00;21.50;;;;;;5073774;28;20162;-50
2021/01/25 01:42:38;;;;;;;0.95;0.85;;;20.00;21.50;;;;;;5056222;28;20246;-51
2021/01/25 01:45:07;;;;;;;1.33;1.23;;;19.90;21.40;;;;;;5073675;28;20614;-50
2021/01/25 01:47:34;;;;;;;1.25;1.00;;;20.00;21.50;;;;;;5073489;28;20189;-50
2021/01/25 01:50:04;;;;;;;1.33;1.20;;;19.90;21.40;;;;;;5073427;28;20606;-51
2021/01/25 01:52:32;;;;;;;1.20;1.00;;;19.90;21.40;;;;;;5073062;28;20246;-50
2021/01/25 01:55:03;;;;;;;2.55;1.30;;;20.00;21.50;;;;;;5056314;28;20614;-50
2021/01/25 01:57:31;;;;;;;1.83;1.73;;;19.90;21.50;;;;;;5073559;28;20250;-51
2021/01/25 01:59:57;;;;;;;1.40;1.30;;;20.00;21.50;;;;;;5070205;28;20171;-51
2021/01/25 02:02:22;;;;;;;1.30;1.10;;;20.00;21.60;;;;;;5053261;28;20166;-51
2021/01/25 02:04:48;;;;;;;1.10;0.80;;;19.90;21.50;;;;;;5053335;28;20198;-50
2021/01/25 02:07:15;;;;;;;1.42;1.10;;;19.90;21.50;;;;;;5052803;28;20668;-51
2021/01/25 02:09:45;;;;;;;1.65;1.30;;;19.90;21.50;;;;;;5053377;28;20159;-50
2021/01/25 02:12:12;;;;;;;1.80;1.20;;;19.90;21.50;;;;;;5053270;28;20218;-50
2021/01/25 02:14:39;;;;;;;1.73;1.25;;;19.90;22.00;;;;;;5053344;28;20165;-50
2021/01/25 02:17:06;;;;;;;1.20;1.10;;;18.10;20.20;;;;;;5053108;28;20166;-50
2021/01/25 02:19:52;;;;;;;1.70;1.10;;;19.90;21.50;;;;;;5053374;28;20214;-50
2021/01/25 02:22:18;;;;;;;1.00;0.90;;;19.90;21.50;;;;;;5052815;28;20166;-50
2021/01/25 02:25:03;;;;;;;1.90;1.20;;;19.90;21.50;;;;;;5053191;28;20191;-50
2021/01/25 02:27:36;;;;;;;1.33;1.13;;;19.90;21.50;;;;;;5053035;28;20155;-50
2021/01/25 02:30:07;;;;;;;1.15;1.02;;;19.90;21.50;;;;;;5053265;28;20159;-50
2021/01/25 02:32:34;;;;;;;2.08;1.15;;;19.90;21.50;;;;;;5052919;28;20159;-50
2021/01/25 02:35:07;;;;;;;1.15;1.05;;;19.90;21.60;;;;;;5052998;28;20628;-50
2021/01/25 02:37:34;;;;;;;1.33;1.10;;;19.90;21.60;;;;;;5052607;28;20202;-51
2021/01/25 02:40:02;;;;;;;1.20;0.77;;;19.90;21.60;;;;;;5053116;28;20241;-50
2021/01/25 02:42:29;;;;;;;1.60;1.20;;;19.90;21.60;;;;;;5052839;28;20178;-51
2021/01/25 02:44:57;;;;;;;1.20;0.93;;;19.90;21.60;;;;;;5053045;28;20187;-50
2021/01/25 02:47:25;;;;;;;2.25;1.35;;;19.90;21.60;;;;;;5052904;28;20238;-50
2021/01/25 02:49:51;;;;;;;1.98;1.10;;;19.90;21.60;;;;;;5053198;28;20155;-50
2021/01/25 02:52:17;;;;;;;1.17;1.07;;;19.90;22.10;;;;;;5052431;28;20164;-51
2021/01/25 02:54:43;;;;;;;1.93;1.40;;;19.90;21.60;;;;;;5054184;28;20910;-50
2021/01/25 02:57:11;;;;;;;1.08;0.85;;;19.90;21.60;;;;;;5056615;28;20163;-51
2021/01/25 02:59:38;;;;;;;2.35;1.25;;;19.90;21.60;;;;;;5056592;28;20156;-51
2021/01/25 03:02:05;;;;;;;1.08;0.95;;;19.90;21.60;;;;;;5056614;28;20185;-50
2021/01/25 03:04:34;;;;;;;1.20;1.10;;;19.90;21.60;;;;;;5056428;28;20190;-51
2021/01/25 03:06:59;;;;;;;1.38;1.17;;;19.90;21.60;;;;;;5056693;28;20151;-51
2021/01/25 03:09:25;;;;;;;1.27;1.13;;;19.90;21.60;;;;;;5055944;28;20265;-51
2021/01/25 03:11:52;;;;;;;1.40;0.90;;;19.90;21.60;;;;;;5056324;28;20945;-54
2021/01/25 03:14:17;;;;;;;1.13;1.05;;;19.90;21.60;;;;;;5056293;28;20174;-51
2021/01/25 03:16:43;;;;;;;1.13;1.00;;;19.90;21.60;;;;;;5056291;28;20171;-51
2021/01/25 03:19:09;;;;;;;1.20;1.10;;;19.90;21.60;;;;;;5056390;28;20612;-50
2021/01/25 03:21:35;;;;;;;1.60;1.08;;;19.90;21.60;;;;;;5056254;28;20151;-51
2021/01/25 03:24:01;;;;;;;3.47;1.13;;;19.90;21.80;;;;;;5055770;28;20174;-51
2021/01/25 03:26:27;;;;;;;0.90;0.80;;;19.90;21.60;;;;;;5056194;28;20191;-51
2021/01/25 03:28:53;;;;;;;1.50;1.00;;;19.90;21.60;;;;;;5056041;28;20156;-51
2021/01/25 03:31:19;;;;;;;2.13;1.27;;;19.90;21.60;;;;;;5056052;28;20414;-51
2021/01/25 03:33:45;;;;;;;2.03;1.00;;;19.90;21.60;;;;;;5056280;28;20405;-51
2021/01/25 03:36:10;;;;;;;0.90;0.80;;;19.90;21.60;;;;;;5055965;28;20782;-50
2021/01/25 03:38:36;;;;;;;1.23;1.13;;;19.90;21.60;;;;;;5055374;28;20160;-50
2021/01/25 03:41:02;;;;;;;1.40;0.93;;;20.00;21.60;;;;;;5055781;28;20205;-50
2021/01/25 03:43:27;;;;;;;1.23;1.13;;;19.90;21.60;;;;;;5055650;28;20240;-50
2021/01/25 03:45:53;;;;;;;1.57;1.00;;;19.90;21.60;;;;;;5055727;28;20190;-51
2021/01/25 03:48:19;;;;;;;1.33;1.23;;;19.90;21.60;;;;;;5055737;28;20162;-51
2021/01/25 03:50:45;;;;;;;1.17;0.90;;;19.90;21.60;;;;;;5055733;28;20567;-50
2021/01/25 03:53:11;;;;;;;1.50;1.20;;;20.00;21.60;;;;;;5055118;28;20234;-51
2021/01/25 03:55:37;;;;;;;1.10;0.90;;;20.00;21.60;;;;;;5055595;28;20220;-51
2021/01/25 03:58:02;;;;;;;1.10;1.00;;;19.90;21.60;;;;;;5055512;28;20190;-50
2021/01/25 04:00:28;;;;;;;1.57;1.13;;;20.00;21.60;;;;;;5055584;28;20182;-50
2021/01/25 04:02:54;;;;;;;1.02;0.90;;;20.00;21.60;;;;;;5037242;28;20163;-51
2021/01/25 04:05:19;;;;;;;0.80;0.80;;;20.00;22.20;;;;;;5055352;28;20699;-51
2021/01/25 04:07:45;;;;;;;1.20;1.10;;;20.00;21.60;;;;;;5055187;28;20152;-50
2021/01/25 04:10:12;;;;;;;0.90;0.90;;;19.30;21.10;;;;;;5055357;28;20155;-50
2021/01/25 04:12:38;;;;;;;1.50;0.90;;;20.00;21.60;;;;;;5054883;28;20245;-50
2021/01/25 04:15:05;;;;;;;1.13;0.87;;;20.00;21.60;;;;;;5055263;28;20203;-50
2021/01/25 04:17:31;;;;;;;2.88;0.90;;;20.00;21.60;;;;;;5055192;28;20178;-51
2021/01/25 04:19:56;;;;;;;1.20;1.00;;;20.00;21.60;;;;;;5037491;28;20151;-51
2021/01/25 04:22:22;;;;;;;0.90;0.80;;;20.00;21.60;;;;;;5054697;28;20190;-51
2021/01/25 04:24:48;;;;;;;1.70;1.23;;;20.00;21.60;;;;;;5055106;28;20194;-50
2021/01/25 04:27:14;;;;;;;1.85;1.50;;;20.00;21.60;;;;;;5054812;28;20147;-51
2021/01/25 04:29:43;;;;;;;0.80;0.80;;;20.00;21.60;;;;;;5055014;28;20158;-51
2021/01/25 04:32:09;;;;;;;1.30;1.20;;;20.00;21.60;;;;;;5054894;28;20245;-51
2021/01/25 04:34:35;;;;;;;1.05;0.90;;;20.00;21.60;;;;;;5054878;28;20163;-51
2021/01/25 04:37:01;;;;;;;1.65;1.10;;;20.00;21.60;;;;;;5054901;28;20187;-50
2021/01/25 04:39:27;;;;;;;1.10;1.00;;;20.00;21.60;;;;;;5054254;28;20159;-50
2021/01/25 04:41:52;;;;;;;1.20;1.10;;;20.00;21.60;;;;;;5054679;28;20163;-50
2021/01/25 04:44:21;;;;;;;2.27;1.50;;;20.00;21.60;;;;;;5054642;28;20170;-50
2021/01/25 04:46:47;;;;;;;1.00;0.88;;;20.00;22.10;;;;;;5054551;28;20646;-50
2021/01/25 04:49:14;;;;;;;1.00;0.90;;;20.00;21.60;;;;;;5054510;28;20254;-50
2021/01/25 04:51:41;;;;;;;1.40;1.30;;;20.00;21.60;;;;;;5054328;28;20186;-51
2021/01/25 04:54:07;;;;;;;1.20;1.00;;;20.00;21.60;;;;;;5053892;28;20197;-51
2021/01/25 04:56:36;;;;;;;1.30;1.15;;;20.00;21.60;;;;;;5054100;28;20163;-50
2021/01/25 04:59:03;;;;;;;1.17;1.08;;;20.00;21.60;;;;;;5054275;28;20163;-50
2021/01/25 05:01:29;;;;;;;1.60;1.10;;;20.00;22.10;;;;;;5054201;28;20179;-51
2021/01/25 05:03:54;;;;;;;1.97;1.37;;;20.00;21.50;;;;;;5054387;28;20190;-50
2021/01/25 05:06:20;;;;;;;0.87;0.80;;;20.00;21.60;;;;;;5054151;28;20217;-51
2021/01/25 05:08:46;;;;;;;0.70;0.70;;;20.00;21.60;;;;;;5053867;28;20183;-49
2021/01/25 05:11:17;;;;;;;1.90;0.80;;;20.00;21.60;;;;;;5053891;28;20890;-51
2021/01/25 05:13:43;;;;;;;1.45;1.25;;;20.00;21.50;;;;;;5054058;28;20178;-50
2021/01/25 05:16:16;;;;;;;1.10;1.00;;;20.00;21.60;;;;;;5054002;28;20483;-50
2021/01/25 05:18:42;;;;;;;1.10;1.00;;;20.00;21.60;;;;;;5053488;28;20912;-50
2021/01/25 05:21:08;;;;;;;1.37;1.03;;;20.00;21.50;;;;;;5053934;28;20157;-50
2021/01/25 05:23:38;;;;;;;1.00;0.87;;;20.00;21.60;;;;;;5053497;28;20491;-50
2021/01/25 05:26:08;;;;;;;0.90;0.70;;;20.00;21.50;;;;;;5053774;28;20205;-50
2021/01/25 05:28:42;;;;;;;1.00;0.88;;;20.10;21.60;;;;;;5053699;28;20637;-51
2021/01/25 05:31:21;;;;;;;2.30;1.23;;;20.10;21.60;;;;;;5053758;28;20162;-51
2021/01/25 05:33:47;;;;;;;1.50;1.10;;;18.40;20.40;;;;;;5053658;28;20169;-51
2021/01/25 05:36:24;;;;;;;1.10;1.00;;;20.10;21.60;;;;;;5053256;28;20187;-51
2021/01/25 05:38:51;;;;;;;1.30;1.10;;;20.10;21.60;;;;;;5053125;28;20252;-51
2021/01/25 05:41:18;;;;;;;1.20;1.00;;;20.10;21.60;;;;;;5053548;28;20622;-50
2021/01/25 05:43:44;;;;;;;1.10;1.00;;;20.10;21.60;;;;;;5053459;28;20182;-50
2021/01/25 05:46:15;;;;;;;0.82;0.82;;;20.10;21.60;;;;;;5053344;28;20186;-51
2021/01/25 05:48:41;;;;;;;1.30;1.00;;;20.10;21.60;;;;;;5053359;28;20155;-50
2021/01/25 05:51:18;;;;;;;0.93;0.85;;;20.10;21.60;;;;;;5053427;28;20182;-50
2021/01/25 05:53:46;;;;;;;1.98;0.90;;;20.10;21.60;;;;;;5052922;28;20167;-50
2021/01/25 05:56:13;;;;;;;1.15;1.00;;;20.10;21.60;;;;;;5053413;28;20163;-50
2021/01/25 05:58:39;;;;;;;1.17;1.08;;;20.10;21.60;;;;;;5053179;28;20163;-50
2021/01/25 06:01:06;;;;;;;1.30;1.20;;;20.10;21.60;;;;;;5053137;28;20631;-50
2021/01/25 06:03:37;;;;;;;1.13;1.02;;;20.10;21.60;;;;;;5053219;28;20163;-50
2021/01/25 06:06:12;;;;;;;1.00;0.90;;;20.10;21.60;;;;;;5053092;28;20183;-50
2021/01/25 06:08:53;;;;;;;1.73;1.27;;;20.10;21.60;;;;;;5034367;28;20181;-50
2021/01/25 06:11:26;;;;;;;1.13;1.02;;;20.10;21.60;;;;;;5053048;28;20218;-51
2021/01/25 06:14:01;;;;;;;1.30;1.10;;;20.10;21.60;;;;;;5053184;28;20653;-51
2021/01/25 06:16:29;;;;;;;1.30;0.90;;;20.10;21.60;;;;;;5068227;28;20515;-51
2021/01/25 06:19:05;;;;;;;1.02;0.90;;;20.10;21.60;;;;;;5053031;28;20601;-50
2021/01/25 06:21:39;;;;;;;0.90;0.90;;;20.10;21.60;;;;;;5053181;28;20183;-51
2021/01/25 06:24:08;;;;;;;1.00;0.95;;;20.10;21.60;;;;;;5052508;28;20610;-50
2021/01/25 06:26:35;;;;;;;1.30;1.20;;;20.10;21.50;;;;;;5052979;28;20183;-50
2021/01/25 06:29:06;;;;;;;1.48;1.20;;;20.10;21.50;;;;;;5053127;28;20155;-50
2021/01/25 06:31:40;;;;;;;1.20;1.00;;;20.10;21.60;;;;;;5057132;28;20166;-50
2021/01/25 06:34:07;;;;;;;1.20;1.00;;;20.20;21.60;;;;;;5056927;28;20618;-50
2021/01/25 06:36:34;;;;;;;1.05;0.85;;;20.10;21.50;;;;;;5056779;28;20175;-51
2021/01/25 06:39:04;;;;;;;0.93;0.82;;;20.20;21.60;;;;;;5056354;28;20163;-51
2021/01/25 06:41:35;;;;;;;1.05;0.95;;;21.50;22.50;;;;;;5056977;28;20190;-50
2021/01/25 06:44:02;;;;;;;1.10;1.00;;;20.20;21.60;;;;;;5056948;28;20151;-51
2021/01/25 06:46:33;;;;;;;0.80;0.80;;;20.20;21.60;;;;;;5056592;28;20218;-50
2021/01/25 06:48:59;;;;;;;1.65;1.00;;;20.20;21.50;;;;;;5056617;28;20154;-51
2021/01/25 06:51:25;;;;;;;0.80;0.80;;;20.20;21.50;;;;;;5056495;28;20156;-51
2021/01/25 06:53:53;;;;;;;1.98;1.05;;;20.20;21.60;;;;;;5056054;28;20510;-50
2021/01/25 06:56:19;;;;;;;1.30;1.00;;;20.20;21.50;;;;;;5056810;28;20159;-50
2021/01/25 06:58:49;;;;;;;1.10;1.00;;;20.20;21.50;;;;;;5056371;28;20489;-50
2021/01/25 07:01:21;;;;;;;1.77;1.27;;;20.20;21.50;;;;;;5056316;28;20237;-50
2021/01/25 07:03:53;;;;;;;1.20;1.05;;;20.20;21.50;;;;;;5056194;28;20154;-51
2021/01/25 07:06:19;;;;;;;1.90;1.05;;;20.20;21.50;;;;;;5056174;28;20297;-50
2021/01/25 07:08:55;;;;;;;1.77;1.60;;;20.20;21.50;;;;;;5055655;28;20243;-51
2021/01/25 07:11:23;;;;;;;1.30;1.10;;;20.20;21.50;;;;;;5056049;28;20214;-51
2021/01/25 07:13:49;;;;;;;2.05;1.20;;;20.20;21.50;;;;;;5055994;28;20182;-51
2021/01/25 07:16:17;;;;;;;1.20;1.05;;;20.20;21.00;;;;;;5056175;28;20530;-51
2021/01/25 07:18:43;;;;;;;0.80;0.80;;;20.30;21.50;;;;;;5056376;28;20175;-51
2021/01/25 07:21:12;;;;;;;1.30;1.15;;;20.20;21.40;;;;;;5056089;28;20602;-50
2021/01/25 07:23:42;;;;;;;1.05;0.90;;;20.30;21.50;;;;;;5055533;28;20176;-51
2021/01/25 07:26:09;;;;;;;1.25;1.10;;;20.30;21.50;;;;;;5055818;28;20323;-50
2021/01/25 07:28:35;;;;;;;0.85;0.85;;;20.30;21.50;;;;;;5055819;28;20171;-50
2021/01/25 07:31:04;;;;;;;1.13;0.93;;;20.30;21.50;;;;;;5055508;28;20491;-50
2021/01/25 07:33:29;;;;;;;1.20;1.10;;;20.30;21.40;;;;;;5055795;28;20163;-50
2021/01/25 07:35:56;;;;;;;1.00;1.00;;;20.30;21.40;;;;;;5055608;28;20656;-51
2021/01/25 07:38:22;;;;;;;1.33;0.90;;;20.30;21.40;;;;;;5055168;28;20656;-50
2021/01/25 07:40:49;;;;;;;1.02;0.90;;;20.30;21.40;;;;;;5055283;28;20159;-50
2021/01/25 07:43:19;;;;;;;1.15;0.90;;;20.30;21.40;;;;;;5055397;28;20163;-50
2021/01/25 07:45:46;;;;;;;1.10;0.88;;;20.30;21.30;;;;;;5055425;28;20233;-50
2021/01/25 07:48:13;;;;;;;1.73;1.33;;;20.30;21.30;;;;;;5055189;28;20637;-50
2021/01/25 07:50:40;;;;;;;1.17;1.08;;;20.30;21.30;;;;;;5055212;28;20595;-50
2021/01/25 07:53:08;;;;;;;1.13;1.02;;;20.30;21.30;;;;;;5054727;28;20220;-50
2021/01/25 07:55:38;;;;;;;1.45;1.17;;;20.30;21.30;;;;;;5055252;28;20167;-50
2021/01/25 07:58:08;;;;;;;1.00;0.90;;;20.30;21.30;;;;;;5054968;28;20630;-51
2021/01/25 08:00:37;;;;;;;1.25;1.15;;;20.40;21.40;;;;;;5053513;28;20546;-51
2021/01/25 08:03:25;;;;;;;1.92;1.25;;;20.40;21.40;;;;;;5035764;28;20195;-51
2021/01/25 08:05:55;;;;;;;1.23;1.13;;;20.40;21.30;;;;;;5053257;28;20226;-51
2021/01/25 08:08:22;;;;;;;1.08;0.98;;;20.40;21.30;;;;;;5041598;28;20183;-50
2021/01/25 08:10:49;;;;;;;1.20;1.10;;;20.40;21.30;;;;;;5053185;28;20249;-51
2021/01/25 08:13:15;;;;;;;0.93;0.93;;;20.40;21.30;;;;;;5047231;28;20179;-50
2021/01/25 08:15:55;;;;;;;0.98;0.95;;;20.40;21.30;;;;;;5042749;28;20179;-50
2021/01/25 08:18:32;;;;;;;1.50;1.02;;;20.40;21.30;;;;;;5046448;28;20728;-51
2021/01/25 08:21:01;;;;;;;1.05;0.95;;;20.40;21.20;;;;;;5051030;28;20170;-51
2021/01/25 08:23:29;;;;;;;1.20;1.10;;;20.40;21.20;;;;;;5047239;28;20560;-51
2021/01/25 08:25:58;;;;;;;0.95;0.95;;;20.40;21.20;;;;;;5050829;28;20187;-50
2021/01/25 08:28:28;;;;;;;1.45;1.00;;;20.40;21.30;;;;;;5051287;28;20203;-50
2021/01/25 08:30:54;;;;;;;1.15;1.05;;;20.40;21.20;;;;;;5046378;28;21323;-51
2021/01/25 08:33:30;;;;;;;1.80;1.08;;;20.40;21.20;;;;;;5049846;28;20167;-51
2021/01/25 08:35:59;;;;;;;1.60;0.90;;;20.40;21.20;;;;;;5050343;28;20232;-51
2021/01/25 08:38:33;;;;;;;1.50;1.10;;;20.40;21.20;;;;;;5052886;28;20170;-51
2021/01/25 08:41:14;;;;;;;1.33;1.23;;;20.40;21.10;;;;;;5051862;28;20174;-51
2021/01/25 08:43:41;;;;;;;1.30;0.93;;;20.40;21.10;;;;;;5049380;28;20518;-50
2021/01/25 08:46:15;;;;;;;1.10;1.00;;;20.50;21.20;;;;;;5051695;28;20229;-50
2021/01/25 08:48:42;;;;;;;1.38;1.10;;;20.50;21.10;;;;;;5048691;28;20171;-51
2021/01/25 08:51:11;;;;;;;1.23;1.00;;;20.50;21.10;;;;;;5050599;28;20198;-50
2021/01/25 08:53:37;;;;;;;1.50;1.40;;;20.50;21.10;;;;;;5048099;28;20159;-51
2021/01/25 08:56:19;;;;;;;0.75;0.75;;;20.50;21.10;;;;;;5051057;28;20179;-51
2021/01/25 08:58:45;;;;;;;1.05;0.95;;;20.50;21.10;;;;;;5036161;28;20207;-51
2021/01/25 09:01:27;;;;;;;1.42;0.95;;;20.50;21.00;;;;;;5051590;28;20179;-52
2021/01/25 09:03:52;;;;;;;1.15;1.05;;;20.50;21.00;;;;;;5047302;28;20175;-52
2021/01/25 09:06:18;;;;;;;1.37;1.00;;;20.50;21.00;;;;;;5053168;28;20209;-50
2021/01/25 09:08:44;;;;;;;1.10;1.00;;;20.60;21.00;;;;;;5050548;28;20175;-51
2021/01/25 09:11:10;;;;;;;1.20;1.10;;;20.60;21.00;;;;;;5049271;28;20230;-51
2021/01/25 09:13:35;;;;;;;1.23;1.10;;;20.60;21.00;;;;;;5044937;28;20176;-51
2021/01/25 09:16:01;;;;;;;1.10;1.00;;;20.60;21.00;;;;;;5049216;28;20186;-51
2021/01/25 09:18:27;;;;;;;1.90;1.10;;;20.60;20.90;;;;;;5048724;28;20534;-50
2021/01/25 09:20:53;;;;;;;1.50;1.37;;;20.60;20.90;;;;;;5051384;28;20229;-51
2021/01/25 09:23:18;;;;;;;0.90;0.90;;;20.60;20.80;;;;;;5049380;28;20445;-51
2021/01/25 09:25:46;;;;;;;1.53;1.20;;;20.70;20.80;;;;;;5049261;28;20620;-50
2021/01/25 09:28:12;;;;;;;1.73;1.20;;;20.70;20.70;;;;;;5051390;28;20175;-51
2021/01/25 09:30:38;;;;;;;1.05;1.05;;;20.70;20.70;;;;;;5048709;28;20626;-51
2021/01/25 09:33:04;;;;;;;1.00;0.90;;;20.70;20.70;;;;;;5050682;28;20189;-51
2021/01/25 09:35:30;;;;;;;3.35;1.50;;;20.70;20.70;;;;;;5045872;28;20201;-51
2021/01/25 09:37:56;;;;;;;1.53;1.20;;;20.70;20.70;;;;;;5049298;28;20630;-50
2021/01/25 09:40:21;;;;;;;1.50;1.13;;;20.70;20.70;;;;;;5050187;28;20277;-51
2021/01/25 09:42:47;;;;;;;1.33;1.10;;;20.70;20.70;;;;;;5045743;28;20175;-52
2021/01/25 09:45:16;;;;;;;1.20;1.10;;;20.70;20.70;;;;;;5051037;28;20248;-51
2021/01/25 09:47:42;;;;;;;1.40;0.90;;;20.70;20.70;;;;;;5045081;28;20711;-50
2021/01/25 09:50:10;;;;;;;1.30;1.20;;;20.70;20.70;;;;;;5049270;28;20163;-51
2021/01/25 09:52:38;;;;;;;1.33;1.23;;;20.70;20.70;;;;;;5049712;28;20171;-51
2021/01/25 09:55:04;;;;;;;1.40;1.20;;;23.40;22.60;;;;;;5049964;28;20171;-51
2021/01/25 09:57:29;;;;;;;1.00;0.90;;;20.80;21.30;;;;;;5046580;28;20933;-50
2021/01/25 09:59:55;;;;;;;1.23;1.07;;;20.80;20.80;;;;;;5050760;28;20431;-50
2021/01/25 10:02:21;;;;;;;1.30;1.20;;;20.80;20.70;;;;;;5045267;28;20185;-51
2021/01/25 10:04:46;;;;;;;1.30;1.20;;;20.80;20.80;;;;;;5049579;28;20554;-50
2021/01/25 10:07:12;;;;;;;0.90;0.90;;;20.80;20.80;;;;;;5049266;28;20661;-50
2021/01/25 10:09:38;;;;;;;1.50;1.40;;;20.80;20.80;;;;;;5050764;28;20627;-50
2021/01/25 10:12:04;;;;;;;1.23;1.10;;;20.90;20.90;;;;;;5046298;28;20713;-50
2021/01/25 10:14:32;;;;;;;1.30;1.20;;;20.90;20.90;;;;;;5051674;28;20561;-51
2021/01/25 10:16:58;;;;;;;1.52;1.42;;;20.90;20.90;;;;;;5050600;28;20434;-51
2021/01/25 10:19:23;;;;;;;1.00;0.90;;;20.90;20.90;;;;;;5050905;28;20213;-51
2021/01/25 10:21:49;;;;;;;1.30;0.90;;;20.90;20.90;;;;;;5048963;28;20422;-51
2021/01/25 10:24:15;;;;;;;1.27;1.17;;;20.90;20.90;;;;;;5049366;28;20193;-50
2021/01/25 10:26:41;;;;;;;1.20;1.03;;;20.90;20.90;;;;;;5049398;28;20197;-50
2021/01/25 10:29:06;;;;;;;1.40;1.23;;;20.90;20.90;;;;;;5049926;28;20522;-51
2021/01/25 10:31:32;;;;;;;1.47;1.33;;;20.90;20.90;;;;;;5050752;28;20281;-51
2021/01/25 10:33:58;;;;;;;1.53;1.40;;;21.00;20.90;;;;;;5047368;28;20187;-51
2021/01/25 10:36:23;;;;;;;1.30;1.20;;;21.00;20.90;;;;;;5050606;28;20182;-51
2021/01/25 10:38:49;;;;;;;1.00;0.90;;;21.00;20.80;;;;;;5047558;28;20266;-50
2021/01/25 10:41:15;;;;;;;0.97;0.97;;;21.00;20.80;;;;;;5048517;28;20274;-50
2021/01/25 10:43:42;;;;;;;1.80;1.70;;;21.00;20.70;;;;;;5041904;28;20270;-50
2021/01/25 10:46:07;;;;;;;1.23;1.13;;;21.00;20.70;;;;;;5051906;28;20295;-50
2021/01/25 10:48:33;;;;;;;1.57;1.47;;;21.00;20.70;;;;;;5050940;28;20654;-50
2021/01/25 10:50:59;;;;;;;1.90;1.80;;;21.00;20.70;;;;;;5041443;28;20503;-51
2021/01/25 10:53:24;;;;;;;1.80;1.70;;;21.00;20.70;;;;;;5050037;28;20254;-51
2021/01/25 10:55:50;;;;;;;2.30;2.10;;;21.00;20.70;;;;;;5049309;28;20638;-51
2021/01/25 10:58:16;;;;;;;2.63;2.10;;;21.00;20.60;;;;;;5049266;28;20217;-51
2021/01/25 11:00:41;;;;;;;1.93;1.80;;;21.00;20.70;;;;;;5052044;28;20745;-50
2021/01/25 11:03:07;;;;;;;4.40;2.40;;;21.00;20.60;;;;;;5048050;28;20666;-51
2021/01/25 11:05:34;;;;;;;2.30;2.10;;;21.10;20.70;;;;;;5047937;28;20658;-51
2021/01/25 11:08:00;;;;;;;2.47;2.28;;;21.10;20.60;;;;;;5027115;28;20186;-51
2021/01/25 11:10:27;;;;;;;2.50;2.30;;;21.10;20.50;;;;;;5038488;28;20175;-52
2021/01/25 11:12:55;;;;;;;3.40;3.10;;;21.10;20.50;;;;;;5051296;28;20190;-51
2021/01/25 11:15:21;;;;;;;2.55;2.10;;;21.10;20.40;;;;;;5056072;28;20186;-51
2021/01/25 11:17:47;;;;;;;2.30;2.00;;;21.20;20.40;;;;;;5041286;28;20194;-51
2021/01/25 11:20:13;;;;;;;2.40;2.20;;;21.20;20.40;;;;;;5049181;28;20175;-51
2021/01/25 11:22:40;;;;;;;2.58;2.25;;;21.20;20.30;;;;;;5051911;28;20266;-51
2021/01/25 11:25:06;;;;;;;2.75;2.53;;;21.20;20.30;;;;;;5052459;28;20199;-51
2021/01/25 11:27:32;;;;;;;2.70;2.42;;;21.20;20.30;;;;;;5052298;28;20565;-51
2021/01/25 11:29:57;;;;;;;2.83;2.50;;;21.20;20.20;;;;;;5053301;28;20163;-51
2021/01/25 11:32:23;;;;;;;2.97;2.77;;;21.30;19.80;;;;;;5052553;28;20229;-50
2021/01/25 11:34:49;;;;;;;3.03;2.73;;;21.20;20.20;;;;;;5052270;28;20182;-51
2021/01/25 11:37:15;;;;;;;2.67;2.47;;;21.30;20.20;;;;;;5052899;28;20191;-51
2021/01/25 11:39:42;;;;;;;3.30;3.00;;;21.30;20.20;;;;;;5049216;28;20542;-51
2021/01/25 11:42:08;;;;;;;3.20;2.90;;;21.30;20.10;;;;;;5052954;28;20405;-51
2021/01/25 11:44:33;;;;;;;2.90;2.67;;;21.30;20.10;;;;;;5052459;28;20179;-51
2021/01/25 11:46:59;;;;;;;2.30;2.10;;;21.30;20.00;;;;;;5051960;28;20943;-51
2021/01/25 11:49:26;;;;;;;2.67;2.40;;;21.40;20.00;;;;;;5036976;28;20175;-51
2021/01/25 11:51:51;;;;;;;2.53;2.33;;;21.40;20.10;;;;;;5052535;28;20182;-51
2021/01/25 11:54:18;;;;;;;3.57;3.27;;;21.40;20.00;;;;;;5054250;28;20167;-51
2021/01/25 11:56:44;;;;;;;2.65;2.45;;;21.30;19.90;;;;;;5053517;28;20206;-51
2021/01/25 11:59:10;;;;;;;2.80;2.60;;;21.40;20.00;;;;;;5046244;28;20595;-51
2021/01/25 12:01:37;;;;;;;3.17;2.55;;;21.40;20.00;;;;;;5052989;28;20179;-51
2021/01/25 12:04:04;;;;;;;3.00;2.70;;;21.40;20.00;;;;;;5050274;28;20179;-51
2021/01/25 12:06:29;;;;;;;3.40;3.10;;;21.40;20.00;;;;;;5053594;28;20732;-51
2021/01/25 12:08:55;;;;;;;2.90;2.43;;;21.40;20.00;;;;;;5044432;28;20194;-51
2021/01/25 12:11:21;;;;;;;3.20;2.53;;;21.40;20.00;;;;;;5054354;28;20218;-51
2021/01/25 12:13:47;;;;;;;3.17;2.88;;;21.40;20.00;;;;;;5053126;28;20175;-51
2021/01/25 12:16:15;;;;;;;4.13;3.10;;;21.40;20.00;;;;;;5050123;28;20182;-51
2021/01/25 12:18:45;;;;;;;3.10;2.80;;;21.40;20.00;;;;;;5045559;28;20638;-51
2021/01/25 12:21:11;;;;;;;3.20;2.90;;;21.40;20.00;;;;;;5051430;28;20227;-51
2021/01/25 12:23:38;;;;;;;2.90;2.70;;;21.40;20.00;;;;;;5051941;28;20193;-50
2021/01/25 12:26:04;;;;;;;2.78;2.55;;;21.40;19.90;;;;;;5051098;28;20183;-51
2021/01/25 12:28:30;;;;;;;4.60;3.20;;;21.40;20.00;;;;;;5049018;28;20190;-51
2021/01/25 12:30:56;;;;;;;3.20;2.90;;;21.40;20.00;;;;;;5051137;28;20179;-51
2021/01/25 12:33:22;;;;;;;3.38;3.05;;;21.40;20.00;;;;;;5051849;28;20503;-51
2021/01/25 12:35:48;;;;;;;3.57;3.27;;;21.50;20.00;;;;;;5052517;28;20271;-51
2021/01/25 12:38:14;;;;;;;3.92;3.20;;;21.50;19.90;;;;;;5052131;28;20674;-51
2021/01/25 12:40:40;;;;;;;3.67;3.35;;;21.50;19.80;;;;;;5048716;28;20642;-50
2021/01/25 12:43:05;;;;;;;3.23;2.93;;;21.60;19.80;;;;;;5043119;28;20193;-51
2021/01/25 12:45:31;;;;;;;3.60;3.30;;;21.50;19.80;;;;;;5043150;28;20223;-50
2021/01/25 12:47:57;;;;;;;3.57;3.27;;;21.60;19.80;;;;;;5049290;28;20182;-51